sensor_id;sensor_type;location;lat;lon;timestamp;pressure;altitude;pressure_sealevel;temperature;humidity
25855;BME280;13680;49.936;11.344;2022-12-18T00:00:26;97993.56;;;-13.00;63.33
25855;BME280;13680;49.936;11.344;2022-12-18T00:02:52;97992.13;;;-13.04;62.90
25855;BME280;13680;49.936;11.344;2022-12-18T00:05:17;97994.16;;;-13.07;62.78
25855;BME280;13680;49.936;11.344;2022-12-18T00:07:42;97998.50;;;-13.08;62.63
25855;BME280;13680;49.936;11.344;2022-12-18T00:10:08;97998.75;;;-13.11;63.12
25855;BME280;13680;49.936;11.344;2022-12-18T00:12:33;98007.91;;;-13.07;62.33
25855;BME280;13680;49.936;11.344;2022-12-18T00:14:59;97995.78;;;-13.06;62.73
25855;BME280;13680;49.936;11.344;2022-12-18T00:17:24;98000.97;;;-13.06;62.91
25855;BME280;13680;49.936;11.344;2022-12-18T00:19:50;98002.97;;;-13.10;62.63
25855;BME280;13680;49.936;11.344;2022-12-18T00:22:18;98009.31;;;-13.14;62.85
25855;BME280;13680;49.936;11.344;2022-12-18T00:24:43;98008.63;;;-13.16;63.03
25855;BME280;13680;49.936;11.344;2022-12-18T00:27:08;98006.84;;;-13.16;63.13
25855;BME280;13680;49.936;11.344;2022-12-18T00:29:34;98009.44;;;-13.16;63.16
25855;BME280;13680;49.936;11.344;2022-12-18T00:31:59;98010.97;;;-13.13;62.93
25855;BME280;13680;49.936;11.344;2022-12-18T00:34:24;98007.69;;;-13.15;63.11
25855;BME280;13680;49.936;11.344;2022-12-18T00:36:50;98017.34;;;-13.17;63.02
25855;BME280;13680;49.936;11.344;2022-12-18T00:39:15;98016.88;;;-13.22;62.48
25855;BME280;13680;49.936;11.344;2022-12-18T00:41:40;98018.06;;;-13.15;62.43
25855;BME280;13680;49.936;11.344;2022-12-18T00:44:25;98018.38;;;-13.20;62.11
25855;BME280;13680;49.936;11.344;2022-12-18T00:46:50;98013.69;;;-13.14;62.33
25855;BME280;13680;49.936;11.344;2022-12-18T00:49:19;98015.00;;;-13.20;62.34
25855;BME280;13680;49.936;11.344;2022-12-18T00:51:45;98007.09;;;-13.19;62.68
25855;BME280;13680;49.936;11.344;2022-12-18T00:54:10;98016.75;;;-13.21;62.90
25855;BME280;13680;49.936;11.344;2022-12-18T00:56:37;98015.47;;;-13.26;62.29
25855;BME280;13680;49.936;11.344;2022-12-18T00:59:03;98021.56;;;-13.27;62.30
25855;BME280;13680;49.936;11.344;2022-12-18T01:01:29;98022.50;;;-13.28;62.22
25855;BME280;13680;49.936;11.344;2022-12-18T01:03:54;98029.53;;;-13.30;62.13
25855;BME280;13680;49.936;11.344;2022-12-18T01:06:19;98035.78;;;-13.33;61.79
25855;BME280;13680;49.936;11.344;2022-12-18T01:08:45;98034.03;;;-13.33;62.53
25855;BME280;13680;49.936;11.344;2022-12-18T01:11:13;98038.50;;;-13.35;61.93
25855;BME280;13680;49.936;11.344;2022-12-18T01:13:39;98033.31;;;-13.35;62.40
25855;BME280;13680;49.936;11.344;2022-12-18T01:16:05;98037.56;;;-13.34;61.87
25855;BME280;13680;49.936;11.344;2022-12-18T01:18:30;98041.56;;;-13.41;62.20
25855;BME280;13680;49.936;11.344;2022-12-18T01:20:55;98039.59;;;-13.37;62.56
25855;BME280;13680;49.936;11.344;2022-12-18T01:23:21;98043.56;;;-13.44;62.21
25855;BME280;13680;49.936;11.344;2022-12-18T01:25:46;98039.94;;;-13.42;62.85
25855;BME280;13680;49.936;11.344;2022-12-18T01:28:11;98040.50;;;-13.38;63.19
25855;BME280;13680;49.936;11.344;2022-12-18T01:30:37;98043.66;;;-13.35;62.68
25855;BME280;13680;49.936;11.344;2022-12-18T01:33:04;98052.88;;;-13.42;62.26
25855;BME280;13680;49.936;11.344;2022-12-18T01:35:29;98042.53;;;-13.42;62.61
25855;BME280;13680;49.936;11.344;2022-12-18T01:37:55;98051.31;;;-13.33;62.39
25855;BME280;13680;49.936;11.344;2022-12-18T01:40:21;98047.47;;;-13.39;62.84
25855;BME280;13680;49.936;11.344;2022-12-18T01:42:53;98043.56;;;-13.44;62.60
25855;BME280;13680;49.936;11.344;2022-12-18T01:47:56;98046.28;;;-13.46;62.22
25855;BME280;13680;49.936;11.344;2022-12-18T01:50:45;98045.34;;;-13.45;62.11
25855;BME280;13680;49.936;11.344;2022-12-18T01:53:28;98044.41;;;-13.44;62.34
25855;BME280;13680;49.936;11.344;2022-12-18T01:55:58;98049.91;;;-13.48;62.58
25855;BME280;13680;49.936;11.344;2022-12-18T02:00:55;98046.88;;;-13.42;62.79
25855;BME280;13680;49.936;11.344;2022-12-18T02:03:20;98043.22;;;-13.51;62.47
25855;BME280;13680;49.936;11.344;2022-12-18T02:05:57;98043.22;;;-13.51;62.03
25855;BME280;13680;49.936;11.344;2022-12-18T02:08:47;98039.69;;;-13.50;62.27
25855;BME280;13680;49.936;11.344;2022-12-18T02:11:32;98044.13;;;-13.52;62.24
25855;BME280;13680;49.936;11.344;2022-12-18T02:14:17;98044.63;;;-13.47;62.40
25855;BME280;13680;49.936;11.344;2022-12-18T02:27:39;98050.28;;;-13.53;62.52
25855;BME280;13680;49.936;11.344;2022-12-18T02:30:07;98048.38;;;-13.51;62.33
25855;BME280;13680;49.936;11.344;2022-12-18T02:32:39;98052.75;;;-13.52;62.90
25855;BME280;13680;49.936;11.344;2022-12-18T02:35:15;98044.03;;;-13.51;62.53
25855;BME280;13680;49.936;11.344;2022-12-18T02:37:43;98039.94;;;-13.53;62.67
25855;BME280;13680;49.936;11.344;2022-12-18T02:40:11;98034.16;;;-13.57;62.17
25855;BME280;13680;49.936;11.344;2022-12-18T02:42:38;98044.13;;;-13.52;61.75
25855;BME280;13680;49.936;11.344;2022-12-18T02:45:04;98034.28;;;-13.58;62.24
25855;BME280;13680;49.936;11.344;2022-12-18T02:47:33;98034.28;;;-13.58;62.41
25855;BME280;13680;49.936;11.344;2022-12-18T02:55:47;98051.41;;;-13.69;61.95
25855;BME280;13680;49.936;11.344;2022-12-18T03:01:01;98048.34;;;-13.62;62.42
25855;BME280;13680;49.936;11.344;2022-12-18T03:03:38;98051.03;;;-13.75;62.35
25855;BME280;13680;49.936;11.344;2022-12-18T03:06:09;98046.78;;;-13.76;61.91
25855;BME280;13680;49.936;11.344;2022-12-18T03:08:42;98041.97;;;-13.81;61.95
25855;BME280;13680;49.936;11.344;2022-12-18T03:11:11;98048.09;;;-13.82;62.27
25855;BME280;13680;49.936;11.344;2022-12-18T03:13:47;98048.94;;;-13.70;62.03
25855;BME280;13680;49.936;11.344;2022-12-18T03:16:18;98048.56;;;-13.77;61.72
25855;BME280;13680;49.936;11.344;2022-12-18T03:18:49;98047.63;;;-13.76;61.45
25855;BME280;13680;49.936;11.344;2022-12-18T03:21:19;98050.22;;;-13.76;62.52
25855;BME280;13680;49.936;11.344;2022-12-18T03:23:48;98050.47;;;-13.68;62.29
25855;BME280;13680;49.936;11.344;2022-12-18T03:26:17;98047.16;;;-13.81;62.28
25855;BME280;13680;49.936;11.344;2022-12-18T03:29:07;98044.91;;;-13.86;62.08
25855;BME280;13680;49.936;11.344;2022-12-18T03:31:35;98051.13;;;-13.88;61.93
25855;BME280;13680;49.936;11.344;2022-12-18T03:34:09;98052.16;;;-13.91;61.88
25855;BME280;13680;49.936;11.344;2022-12-18T03:36:38;98047.84;;;-13.90;62.28
25855;BME280;13680;49.936;11.344;2022-12-18T03:39:04;98054.03;;;-13.93;61.46
25855;BME280;13680;49.936;11.344;2022-12-18T03:41:36;98054.63;;;-13.89;61.63
25855;BME280;13680;49.936;11.344;2022-12-18T03:47:28;98054.38;;;-13.97;61.91
25855;BME280;13680;49.936;11.344;2022-12-18T03:52:31;98056.38;;;-14.01;62.06
25855;BME280;13680;49.936;11.344;2022-12-18T03:55:01;98054.50;;;-13.99;61.85
25855;BME280;13680;49.936;11.344;2022-12-18T03:57:29;98056.47;;;-14.03;61.65
25855;BME280;13680;49.936;11.344;2022-12-18T04:00:09;98049.53;;;-14.02;62.04
25855;BME280;13680;49.936;11.344;2022-12-18T04:02:37;98047.56;;;-13.99;61.85
25855;BME280;13680;49.936;11.344;2022-12-18T04:05:07;98051.53;;;-14.06;61.45
25855;BME280;13680;49.936;11.344;2022-12-18T04:07:33;98053.28;;;-14.06;61.79
25855;BME280;13680;49.936;11.344;2022-12-18T04:10:00;98062.69;;;-14.05;61.72
25855;BME280;13680;49.936;11.344;2022-12-18T04:12:28;98068.06;;;-14.08;61.77
25855;BME280;13680;49.936;11.344;2022-12-18T04:14:54;98073.25;;;-14.08;61.24
25855;BME280;13680;49.936;11.344;2022-12-18T04:17:19;98081.13;;;-14.10;61.70
25855;BME280;13680;49.936;11.344;2022-12-18T04:19:45;98095.69;;;-14.09;61.09
25855;BME280;13680;49.936;11.344;2022-12-18T04:22:10;98087.06;;;-14.21;61.33
25855;BME280;13680;49.936;11.344;2022-12-18T04:24:35;98085.53;;;-14.23;61.33
25855;BME280;13680;49.936;11.344;2022-12-18T04:27:01;98086.03;;;-14.18;61.08
25855;BME280;13680;49.936;11.344;2022-12-18T04:29:26;98090.16;;;-14.16;61.26
25855;BME280;13680;49.936;11.344;2022-12-18T04:31:52;98088.00;;;-14.22;61.74
25855;BME280;13680;49.936;11.344;2022-12-18T04:34:17;98088.94;;;-14.23;61.96
25855;BME280;13680;49.936;11.344;2022-12-18T04:36:42;98085.53;;;-14.23;61.71
25855;BME280;13680;49.936;11.344;2022-12-18T04:39:08;98082.94;;;-14.23;61.53
25855;BME280;13680;49.936;11.344;2022-12-18T04:41:33;98087.38;;;-14.25;61.24
25855;BME280;13680;49.936;11.344;2022-12-18T04:43:58;98082.53;;;-14.30;61.65
25855;BME280;13680;49.936;11.344;2022-12-18T04:46:24;98086.91;;;-14.30;61.20
25855;BME280;13680;49.936;11.344;2022-12-18T04:48:49;98094.22;;;-14.24;61.00
25855;BME280;13680;49.936;11.344;2022-12-18T04:51:14;98093.72;;;-14.29;61.05
25855;BME280;13680;49.936;11.344;2022-12-18T04:53:40;98097.22;;;-14.30;61.45
25855;BME280;13680;49.936;11.344;2022-12-18T04:56:11;98087.81;;;-14.32;61.22
25855;BME280;13680;49.936;11.344;2022-12-18T04:58:37;98084.03;;;-14.39;60.94
25855;BME280;13680;49.936;11.344;2022-12-18T05:01:03;98096.00;;;-14.38;60.99
25855;BME280;13680;49.936;11.344;2022-12-18T05:03:29;98090.63;;;-14.35;61.09
25855;BME280;13680;49.936;11.344;2022-12-18T05:05:54;98096.00;;;-14.38;60.92
25855;BME280;13680;49.936;11.344;2022-12-18T05:08:19;98092.13;;;-14.43;61.17
25855;BME280;13680;49.936;11.344;2022-12-18T05:10:45;98102.22;;;-14.40;61.54
25855;BME280;13680;49.936;11.344;2022-12-18T05:13:10;98100.34;;;-14.38;61.34
25855;BME280;13680;49.936;11.344;2022-12-18T05:15:36;98090.47;;;-14.44;61.67
25855;BME280;13680;49.936;11.344;2022-12-18T05:18:02;98092.22;;;-14.45;61.19
25855;BME280;13680;49.936;11.344;2022-12-18T05:20:29;98107.91;;;-14.48;61.36
25855;BME280;13680;49.936;11.344;2022-12-18T05:22:55;98108.66;;;-14.46;60.95
25855;BME280;13680;49.936;11.344;2022-12-18T05:25:21;98103.47;;;-14.46;61.36
25855;BME280;13680;49.936;11.344;2022-12-18T05:27:47;98107.91;;;-14.48;60.68
25855;BME280;13680;49.936;11.344;2022-12-18T05:30:13;98110.31;;;-14.45;61.21
25855;BME280;13680;49.936;11.344;2022-12-18T05:32:39;98104.91;;;-14.42;60.46
25855;BME280;13680;49.936;11.344;2022-12-18T05:35:08;98111.44;;;-14.49;60.98
25855;BME280;13680;49.936;11.344;2022-12-18T05:37:34;98111.44;;;-14.49;61.10
25855;BME280;13680;49.936;11.344;2022-12-18T05:40:00;98110.38;;;-14.46;60.75
25855;BME280;13680;49.936;11.344;2022-12-18T05:42:25;98112.03;;;-14.45;60.74
25855;BME280;13680;49.936;11.344;2022-12-18T05:44:51;98104.63;;;-14.50;60.99
25855;BME280;13680;49.936;11.344;2022-12-18T05:47:16;98102.75;;;-14.48;61.31
25855;BME280;13680;49.936;11.344;2022-12-18T05:49:41;98098.63;;;-14.51;60.98
25855;BME280;13680;49.936;11.344;2022-12-18T05:52:07;98100.59;;;-14.54;61.21
25855;BME280;13680;49.936;11.344;2022-12-18T05:54:32;98097.09;;;-14.53;60.98
25855;BME280;13680;49.936;11.344;2022-12-18T05:56:58;98104.22;;;-14.57;61.25
25855;BME280;13680;49.936;11.344;2022-12-18T05:59:23;98117.47;;;-14.61;60.61
25855;BME280;13680;49.936;11.344;2022-12-18T06:01:49;98120.06;;;-14.61;60.61
25855;BME280;13680;49.936;11.344;2022-12-18T06:04:14;98123.56;;;-14.62;60.73
25855;BME280;13680;49.936;11.344;2022-12-18T06:06:41;98120.69;;;-14.71;60.95
25855;BME280;13680;49.936;11.344;2022-12-18T06:09:06;98127.53;;;-14.70;60.89
25855;BME280;13680;49.936;11.344;2022-12-18T06:11:34;98133.72;;;-14.72;61.32
25855;BME280;13680;49.936;11.344;2022-12-18T06:14:00;98138.88;;;-14.72;60.96
25855;BME280;13680;49.936;11.344;2022-12-18T06:16:27;98140.78;;;-14.74;60.83
25855;BME280;13680;49.936;11.344;2022-12-18T06:18:52;98143.75;;;-14.68;60.83
25855;BME280;13680;49.936;11.344;2022-12-18T06:21:18;98142.41;;;-14.73;60.65
25855;BME280;13680;49.936;11.344;2022-12-18T06:23:43;98147.56;;;-14.73;60.59
25855;BME280;13680;49.936;11.344;2022-12-18T06:26:10;98145.09;;;-14.75;60.58
25855;BME280;13680;49.936;11.344;2022-12-18T06:28:36;98142.81;;;-14.67;60.42
25855;BME280;13680;49.936;11.344;2022-12-18T06:31:06;98146.75;;;-14.74;60.61
25855;BME280;13680;49.936;11.344;2022-12-18T06:33:31;98157.50;;;-14.80;60.68
25855;BME280;13680;49.936;11.344;2022-12-18T06:36:04;98162.03;;;-14.84;60.75
25855;BME280;13680;49.936;11.344;2022-12-18T06:38:31;98174.84;;;-14.82;61.12
25855;BME280;13680;49.936;11.344;2022-12-18T06:40:57;98170.81;;;-14.73;60.83
25855;BME280;13680;49.936;11.344;2022-12-18T06:43:22;98171.13;;;-14.78;60.67
25855;BME280;13680;49.936;11.344;2022-12-18T06:45:48;98165.03;;;-14.77;60.51
25855;BME280;13680;49.936;11.344;2022-12-18T06:48:18;98153.69;;;-14.74;60.91
25855;BME280;13680;49.936;11.344;2022-12-18T06:50:44;98151.50;;;-14.80;60.95
25855;BME280;13680;49.936;11.344;2022-12-18T06:53:09;98155.13;;;-14.83;60.64
25855;BME280;13680;49.936;11.344;2022-12-18T06:55:35;98151.63;;;-14.82;60.72
25855;BME280;13680;49.936;11.344;2022-12-18T06:58:00;98159.38;;;-14.82;60.88
25855;BME280;13680;49.936;11.344;2022-12-18T07:00:25;98148.41;;;-14.86;60.60
25855;BME280;13680;49.936;11.344;2022-12-18T07:02:51;98145.94;;;-14.87;60.60
25855;BME280;13680;49.936;11.344;2022-12-18T07:05:17;98143.16;;;-14.84;60.44
25855;BME280;13680;49.936;11.344;2022-12-18T07:07:42;98148.00;;;-14.79;60.38
25855;BME280;13680;49.936;11.344;2022-12-18T07:10:08;98137.75;;;-14.81;60.29
25855;BME280;13680;49.936;11.344;2022-12-18T07:12:33;98146.03;;;-14.76;60.33
25855;BME280;13680;49.936;11.344;2022-12-18T07:14:59;98145.41;;;-14.92;60.50
25855;BME280;13680;49.936;11.344;2022-12-18T07:17:24;98149.53;;;-15.03;60.33
25855;BME280;13680;49.936;11.344;2022-12-18T07:19:49;98162.16;;;-14.98;60.22
25855;BME280;13680;49.936;11.344;2022-12-18T07:22:15;98150.50;;;-14.91;60.48
25855;BME280;13680;49.936;11.344;2022-12-18T07:24:40;98154.00;;;-14.92;60.79
25855;BME280;13680;49.936;11.344;2022-12-18T07:27:05;98157.59;;;-14.82;60.52
25855;BME280;13680;49.936;11.344;2022-12-18T07:29:31;98168.31;;;-14.75;60.49
25855;BME280;13680;49.936;11.344;2022-12-18T07:31:56;98167.41;;;-14.74;60.58
25855;BME280;13680;49.936;11.344;2022-12-18T07:34:21;98171.13;;;-14.65;60.56
25855;BME280;13680;49.936;11.344;2022-12-18T07:36:47;98162.44;;;-14.64;60.54
25855;BME280;13680;49.936;11.344;2022-12-18T07:39:12;98160.34;;;-14.59;60.16
25855;BME280;13680;49.936;11.344;2022-12-18T07:41:37;98167.97;;;-14.57;60.22
25855;BME280;13680;49.936;11.344;2022-12-18T07:44:03;98174.97;;;-14.46;59.92
25855;BME280;13680;49.936;11.344;2022-12-18T07:46:29;98180.56;;;-14.40;59.88
25855;BME280;13680;49.936;11.344;2022-12-18T07:48:54;98182.72;;;-14.34;59.97
25855;BME280;13680;49.936;11.344;2022-12-18T07:51:19;98179.69;;;-14.27;59.71
25855;BME280;13680;49.936;11.344;2022-12-18T07:53:45;98179.25;;;-14.21;59.56
25855;BME280;13680;49.936;11.344;2022-12-18T07:56:11;98174.28;;;-14.11;59.39
25855;BME280;13680;49.936;11.344;2022-12-18T07:58:37;98180.50;;;-14.14;59.59
25855;BME280;13680;49.936;11.344;2022-12-18T08:01:10;98186.66;;;-14.04;58.83
25855;BME280;13680;49.936;11.344;2022-12-18T08:03:36;98180.75;;;-14.06;58.96
25855;BME280;13680;49.936;11.344;2022-12-18T08:06:03;98179.41;;;-13.99;59.00
25855;BME280;13680;49.936;11.344;2022-12-18T08:08:29;98178.75;;;-13.89;59.62
25855;BME280;13680;49.936;11.344;2022-12-18T08:10:55;98189.13;;;-13.78;59.65
25855;BME280;13680;49.936;11.344;2022-12-18T08:13:21;98184.88;;;-13.66;59.12
25855;BME280;13680;49.936;11.344;2022-12-18T08:15:48;98184.75;;;-13.64;59.29
25855;BME280;13680;49.936;11.344;2022-12-18T08:18:20;98191.09;;;-13.57;58.91
25855;BME280;13680;49.936;11.344;2022-12-18T08:20:45;98199.84;;;-13.47;59.32
25855;BME280;13680;49.936;11.344;2022-12-18T08:23:10;98201.06;;;-13.28;59.53
25855;BME280;13680;49.936;11.344;2022-12-18T08:25:36;98201.13;;;-13.17;59.37
25855;BME280;13680;49.936;11.344;2022-12-18T08:28:01;98202.69;;;-13.03;59.74
25855;BME280;13680;49.936;11.344;2022-12-18T08:30:26;98209.44;;;-12.89;59.50
25855;BME280;13680;49.936;11.344;2022-12-18T08:32:51;98204.00;;;-12.86;59.73
25855;BME280;13680;49.936;11.344;2022-12-18T08:35:18;98198.00;;;-12.87;59.66
25855;BME280;13680;49.936;11.344;2022-12-18T08:37:43;98194.84;;;-12.68;59.55
25855;BME280;13680;49.936;11.344;2022-12-18T08:40:09;98203.31;;;-12.54;59.30
25855;BME280;13680;49.936;11.344;2022-12-18T08:42:35;98200.88;;;-12.33;59.17
25855;BME280;13680;49.936;11.344;2022-12-18T08:45:19;98201.47;;;-12.29;59.18
25855;BME280;13680;49.936;11.344;2022-12-18T08:47:44;98201.56;;;-12.20;58.91
25855;BME280;13680;49.936;11.344;2022-12-18T08:50:09;98199.06;;;-12.10;58.86
25855;BME280;13680;49.936;11.344;2022-12-18T08:52:36;98198.28;;;-11.89;59.20
25855;BME280;13680;49.936;11.344;2022-12-18T08:55:01;98200.84;;;-11.66;58.61
25855;BME280;13680;49.936;11.344;2022-12-18T08:57:26;98186.41;;;-11.48;59.17
25855;BME280;13680;49.936;11.344;2022-12-18T08:59:51;98189.91;;;-11.16;58.98
25855;BME280;13680;49.936;11.344;2022-12-18T09:02:17;98180.78;;;-10.90;58.93
25855;BME280;13680;49.936;11.344;2022-12-18T09:04:46;98173.69;;;-10.57;58.10
25855;BME280;13680;49.936;11.344;2022-12-18T09:07:12;98167.94;;;-10.10;58.43
25855;BME280;13680;49.936;11.344;2022-12-18T09:09:38;98161.88;;;-9.50;58.66
25855;BME280;13680;49.936;11.344;2022-12-18T09:12:03;98161.97;;;-9.02;57.25
25855;BME280;13680;49.936;11.344;2022-12-18T09:14:28;98173.56;;;-8.40;57.23
25855;BME280;13680;49.936;11.344;2022-12-18T09:16:54;98170.06;;;-7.75;56.31
25855;BME280;13680;49.936;11.344;2022-12-18T09:19:19;98167.31;;;-7.19;54.56
25855;BME280;13680;49.936;11.344;2022-12-18T09:21:44;98165.53;;;-6.74;54.34
25855;BME280;13680;49.936;11.344;2022-12-18T09:24:12;98167.78;;;-6.53;52.93
25855;BME280;13680;49.936;11.344;2022-12-18T09:26:38;98158.53;;;-5.80;52.19
25855;BME280;13680;49.936;11.344;2022-12-18T09:29:03;98156.50;;;-5.43;51.83
25855;BME280;13680;49.936;11.344;2022-12-18T09:31:29;98150.59;;;-5.12;49.95
25855;BME280;13680;49.936;11.344;2022-12-18T09:33:55;98148.72;;;-4.62;50.10
25855;BME280;13680;49.936;11.344;2022-12-18T09:36:21;98141.50;;;-4.04;50.30
25855;BME280;13680;49.936;11.344;2022-12-18T09:38:46;98138.13;;;-3.58;49.47
25855;BME280;13680;49.936;11.344;2022-12-18T09:41:32;98130.47;;;-3.21;47.92
25855;BME280;13680;49.936;11.344;2022-12-18T09:44:11;98136.13;;;-2.71;46.33
25855;BME280;13680;49.936;11.344;2022-12-18T09:46:51;98124.59;;;-2.40;47.35
25855;BME280;13680;49.936;11.344;2022-12-18T09:49:21;98131.19;;;-2.15;46.64
25855;BME280;13680;49.936;11.344;2022-12-18T09:52:00;98124.78;;;-1.75;46.31
25855;BME280;13680;49.936;11.344;2022-12-18T09:54:39;98122.13;;;-1.75;46.01
25855;BME280;13680;49.936;11.344;2022-12-18T09:57:05;98121.47;;;-1.41;45.46
25855;BME280;13680;49.936;11.344;2022-12-18T09:59:35;98127.19;;;-1.16;46.57
25855;BME280;13680;49.936;11.344;2022-12-18T10:02:22;98118.59;;;-0.96;45.77
25855;BME280;13680;49.936;11.344;2022-12-18T10:05:02;98110.56;;;-0.88;46.81
25855;BME280;13680;49.936;11.344;2022-12-18T10:10:47;98109.72;;;-1.17;47.77
25855;BME280;13680;49.936;11.344;2022-12-18T10:13:38;98110.41;;;-1.29;48.68
25855;BME280;13680;49.936;11.344;2022-12-18T10:16:16;98110.63;;;-1.53;49.33
25855;BME280;13680;49.936;11.344;2022-12-18T10:21:22;98098.31;;;-1.67;52.76
25855;BME280;13680;49.936;11.344;2022-12-18T10:26:40;98085.78;;;-1.80;53.92
25855;BME280;13680;49.936;11.344;2022-12-18T10:29:12;98088.78;;;-1.83;55.26
25855;BME280;13680;49.936;11.344;2022-12-18T10:31:37;98085.84;;;-1.95;55.36
25855;BME280;13680;49.936;11.344;2022-12-18T10:34:03;98082.53;;;-1.82;55.11
25855;BME280;13680;49.936;11.344;2022-12-18T10:36:28;98082.16;;;-1.57;55.75
25855;BME280;13680;49.936;11.344;2022-12-18T10:39:14;98082.09;;;-1.42;54.73
25855;BME280;13680;49.936;11.344;2022-12-18T10:41:39;98077.72;;;-1.07;55.21
25855;BME280;13680;49.936;11.344;2022-12-18T10:44:19;98081.56;;;-0.81;54.37
25855;BME280;13680;49.936;11.344;2022-12-18T10:46:49;98089.88;;;-0.49;54.20
25855;BME280;13680;49.936;11.344;2022-12-18T10:49:21;98087.56;;;-0.24;53.84
25855;BME280;13680;49.936;11.344;2022-12-18T10:51:47;98088.69;;;0.09;53.40
25855;BME280;13680;49.936;11.344;2022-12-18T10:54:16;98101.97;;;0.29;52.49
25855;BME280;13680;49.936;11.344;2022-12-18T10:56:42;98090.22;;;0.45;53.37
25855;BME280;13680;49.936;11.344;2022-12-18T10:59:10;98095.94;;;0.62;52.42
25855;BME280;13680;49.936;11.344;2022-12-18T11:01:56;98102.88;;;0.96;51.93
25855;BME280;13680;49.936;11.344;2022-12-18T11:04:25;98104.53;;;0.91;52.22
25855;BME280;13680;49.936;11.344;2022-12-18T11:07:04;98095.50;;;1.52;51.39
25855;BME280;13680;49.936;11.344;2022-12-18T11:09:32;98106.81;;;1.86;50.27
25855;BME280;13680;49.936;11.344;2022-12-18T11:12:00;98091.50;;;1.88;49.71
25855;BME280;13680;49.936;11.344;2022-12-18T11:14:29;98097.97;;;2.76;48.85
25855;BME280;13680;49.936;11.344;2022-12-18T11:16:58;98085.69;;;3.51;46.47
25855;BME280;13680;49.936;11.344;2022-12-18T11:19:34;98078.63;;;4.13;44.93
25855;BME280;13680;49.936;11.344;2022-12-18T11:22:02;98080.13;;;4.81;44.14
25855;BME280;13680;49.936;11.344;2022-12-18T11:24:32;98073.75;;;5.06;42.34
25855;BME280;13680;49.936;11.344;2022-12-18T11:27:04;98074.47;;;5.25;42.65
25855;BME280;13680;49.936;11.344;2022-12-18T11:29:36;98069.72;;;5.27;42.44
25855;BME280;13680;49.936;11.344;2022-12-18T11:32:27;98068.59;;;5.99;41.69
25855;BME280;13680;49.936;11.344;2022-12-18T11:35:20;98075.56;;;6.29;40.98
25855;BME280;13680;49.936;11.344;2022-12-18T11:37:56;98079.69;;;5.44;41.89
25855;BME280;13680;49.936;11.344;2022-12-18T11:40:31;98082.22;;;5.15;42.24
25855;BME280;13680;49.936;11.344;2022-12-18T11:43:05;98081.53;;;5.07;43.22
25855;BME280;13680;49.936;11.344;2022-12-18T11:45:34;98058.19;;;5.62;42.24
25855;BME280;13680;49.936;11.344;2022-12-18T11:48:09;98055.53;;;5.62;41.68
25855;BME280;13680;49.936;11.344;2022-12-18T11:50:58;98053.13;;;5.49;42.34
25855;BME280;13680;49.936;11.344;2022-12-18T11:53:26;98058.59;;;4.52;43.06
25855;BME280;13680;49.936;11.344;2022-12-18T11:56:00;98049.00;;;4.21;44.52
25855;BME280;13680;49.936;11.344;2022-12-18T12:03:48;98066.84;;;2.26;49.14
25855;BME280;13680;49.936;11.344;2022-12-18T12:09:39;98054.84;;;1.72;50.42
25855;BME280;13680;49.936;11.344;2022-12-18T12:15:12;98048.19;;;1.56;51.68
25855;BME280;13680;49.936;11.344;2022-12-18T12:17:54;98045.78;;;1.34;52.59
25855;BME280;13680;49.936;11.344;2022-12-18T12:25:52;98013.28;;;1.59;51.22
25855;BME280;13680;49.936;11.344;2022-12-18T12:34:18;98008.56;;;0.82;53.47
25855;BME280;13680;49.936;11.344;2022-12-18T12:37:07;98005.94;;;0.75;54.04
25855;BME280;13680;49.936;11.344;2022-12-18T12:39:42;98008.16;;;0.65;54.61
25855;BME280;13680;49.936;11.344;2022-12-18T12:42:20;98022.03;;;0.80;53.76
25855;BME280;13680;49.936;11.344;2022-12-18T12:45:16;98023.84;;;0.93;53.43
25855;BME280;13680;49.936;11.344;2022-12-18T12:47:44;98031.97;;;0.92;53.92
25855;BME280;13680;49.936;11.344;2022-12-18T12:50:16;98023.84;;;0.87;53.72
25855;BME280;13680;49.936;11.344;2022-12-18T12:52:52;98036.06;;;0.68;54.16
25855;BME280;13680;49.936;11.344;2022-12-18T12:55:24;98032.00;;;0.45;54.74
25855;BME280;13680;49.936;11.344;2022-12-18T12:58:18;98029.53;;;0.70;54.44
25855;BME280;13680;49.936;11.344;2022-12-18T13:00:56;98025.69;;;0.53;53.71
25855;BME280;13680;49.936;11.344;2022-12-18T13:03:43;98038.06;;;0.19;55.22
25855;BME280;13680;49.936;11.344;2022-12-18T13:06:18;98040.63;;;-0.08;55.88
25855;BME280;13680;49.936;11.344;2022-12-18T13:09:00;98051.53;;;-0.31;57.18
25855;BME280;13680;49.936;11.344;2022-12-18T13:11:54;98046.84;;;-0.36;56.59
25855;BME280;13680;49.936;11.344;2022-12-18T13:14:45;98048.44;;;-0.42;56.78
25855;BME280;13680;49.936;11.344;2022-12-18T13:20:01;98038.41;;;-0.60;57.76
25855;BME280;13680;49.936;11.344;2022-12-18T13:22:36;98032.75;;;-0.50;57.61
25855;BME280;13680;49.936;11.344;2022-12-18T13:25:03;98022.50;;;-1.02;58.89
25855;BME280;13680;49.936;11.344;2022-12-18T13:38:44;98008.56;;;-1.45;60.16
25855;BME280;13680;49.936;11.344;2022-12-18T13:46:28;98017.97;;;-1.43;59.59
25855;BME280;13680;49.936;11.344;2022-12-18T13:49:00;98019.34;;;-0.90;58.92
25855;BME280;13680;49.936;11.344;2022-12-18T13:51:27;98015.50;;;-0.88;59.02
25855;BME280;13680;49.936;11.344;2022-12-18T13:53:57;98019.06;;;-0.67;58.12
25855;BME280;13680;49.936;11.344;2022-12-18T13:56:32;98019.44;;;-1.34;60.21
25855;BME280;13680;49.936;11.344;2022-12-18T13:59:24;98012.84;;;-0.88;59.06
25855;BME280;13680;49.936;11.344;2022-12-18T14:01:57;98019.06;;;-1.30;59.27
25855;BME280;13680;49.936;11.344;2022-12-18T14:04:34;98018.63;;;-1.34;60.14
25855;BME280;13680;49.936;11.344;2022-12-18T14:07:10;98007.13;;;-1.48;60.11
25855;BME280;13680;49.936;11.344;2022-12-18T14:09:42;98004.81;;;-1.36;60.23
25855;BME280;13680;49.936;11.344;2022-12-18T14:12:30;97993.00;;;-1.12;60.06
25855;BME280;13680;49.936;11.344;2022-12-18T14:17:53;97989.34;;;-1.39;60.99
25855;BME280;13680;49.936;11.344;2022-12-18T14:20:20;97991.66;;;-1.29;60.35